sensor_id;sensor_type;location;lat;lon;timestamp;pressure;altitude;pressure_sealevel;temperature;humidity
62833;BME280;48891;49.220;6.920;2024-02-21T00:00:15;99992.69;;;15.07;79.02
62833;BME280;48891;49.220;6.920;2024-02-21T00:02:41;99991.72;;;15.08;79.06
62833;BME280;48891;49.220;6.920;2024-02-21T00:05:06;99991.72;;;15.08;79.22
62833;BME280;48891;49.220;6.920;2024-02-21T00:07:32;99992.69;;;15.07;79.23
62833;BME280;48891;49.220;6.920;2024-02-21T00:09:57;100001.50;;;15.08;79.17
62833;BME280;48891;49.220;6.920;2024-02-21T00:12:22;99991.25;;;15.02;79.08
62833;BME280;48891;49.220;6.920;2024-02-21T00:14:47;99986.59;;;15.05;78.94
62833;BME280;48891;49.220;6.920;2024-02-21T00:17:13;99990.97;;;15.06;79.08
62833;BME280;48891;49.220;6.920;2024-02-21T00:19:38;99993.53;;;15.08;78.66
62833;BME280;48891;49.220;6.920;2024-02-21T00:22:03;99978.66;;;15.05;78.49
62833;BME280;48891;49.220;6.920;2024-02-21T00:24:29;99974.19;;;15.06;79.07
62833;BME280;48891;49.220;6.920;2024-02-21T00:26:54;99964.41;;;15.06;79.17
62833;BME280;48891;49.220;6.920;2024-02-21T00:29:19;99954.75;;;15.05;78.85
62833;BME280;48891;49.220;6.920;2024-02-21T00:31:45;99960.97;;;15.04;78.57
62833;BME280;48891;49.220;6.920;2024-02-21T00:34:10;99966.28;;;15.04;78.88
62833;BME280;48891;49.220;6.920;2024-02-21T00:36:35;99960.06;;;15.05;78.61
62833;BME280;48891;49.220;6.920;2024-02-21T00:39:00;99961.91;;;15.03;78.90
62833;BME280;48891;49.220;6.920;2024-02-21T00:41:26;99956.59;;;15.03;78.71
62833;BME280;48891;49.220;6.920;2024-02-21T00:43:51;99943.44;;;15.02;78.60
62833;BME280;48891;49.220;6.920;2024-02-21T00:46:16;99945.13;;;15.03;78.80
62833;BME280;48891;49.220;6.920;2024-02-21T00:48:41;99948.84;;;15.00;78.78
62833;BME280;48891;49.220;6.920;2024-02-21T00:51:06;99950.38;;;15.04;78.75
62833;BME280;48891;49.220;6.920;2024-02-21T00:53:32;99946.88;;;15.04;78.38
62833;BME280;48891;49.220;6.920;2024-02-21T00:55:57;99945.97;;;15.03;79.07
62833;BME280;48891;49.220;6.920;2024-02-21T00:58:22;99950.38;;;15.04;78.67
62833;BME280;48891;49.220;6.920;2024-02-21T01:00:48;99948.63;;;15.03;78.73
62833;BME280;48891;49.220;6.920;2024-02-21T01:03:13;99952.34;;;15.00;78.56
62833;BME280;48891;49.220;6.920;2024-02-21T01:05:38;99941.81;;;14.99;78.60
62833;BME280;48891;49.220;6.920;2024-02-21T01:08:04;99928.34;;;15.02;78.86
62833;BME280;48891;49.220;6.920;2024-02-21T01:10:29;99906.16;;;15.03;78.81
62833;BME280;48891;49.220;6.920;2024-02-21T01:12:54;99903.41;;;15.05;78.79
62833;BME280;48891;49.220;6.920;2024-02-21T01:15:19;99905.31;;;15.03;78.38
62833;BME280;48891;49.220;6.920;2024-02-21T01:17:45;99908.72;;;15.05;78.59
62833;BME280;48891;49.220;6.920;2024-02-21T01:20:10;99893.91;;;15.00;78.72
62833;BME280;48891;49.220;6.920;2024-02-21T01:22:35;99878.59;;;14.90;78.49
62833;BME280;48891;49.220;6.920;2024-02-21T01:25:01;99906.69;;;14.94;78.88
62833;BME280;48891;49.220;6.920;2024-02-21T01:27:26;99904.47;;;15.02;78.90
62833;BME280;48891;49.220;6.920;2024-02-21T01:29:53;99884.22;;;14.99;78.57
62833;BME280;48891;49.220;6.920;2024-02-21T01:32:18;99885.28;;;14.97;78.78
62833;BME280;48891;49.220;6.920;2024-02-21T01:34:43;99894.00;;;14.99;79.19
62833;BME280;48891;49.220;6.920;2024-02-21T01:37:09;99878.91;;;14.99;78.45
62833;BME280;48891;49.220;6.920;2024-02-21T01:39:34;99874.28;;;15.03;78.91
62833;BME280;48891;49.220;6.920;2024-02-21T01:41:59;99847.75;;;14.87;78.67
62833;BME280;48891;49.220;6.920;2024-02-21T01:44:25;99871.63;;;15.03;78.67
62833;BME280;48891;49.220;6.920;2024-02-21T01:46:51;99868.88;;;15.05;78.79
62833;BME280;48891;49.220;6.920;2024-02-21T01:49:17;99873.53;;;15.01;78.68
62833;BME280;48891;49.220;6.920;2024-02-21T01:51:43;99874.28;;;15.03;78.72
62833;BME280;48891;49.220;6.920;2024-02-21T01:54:10;99871.75;;;15.02;78.89
62833;BME280;48891;49.220;6.920;2024-02-21T01:56:35;99872.59;;;15.02;78.89
62833;BME280;48891;49.220;6.920;2024-02-21T01:59:01;99869.84;;;15.04;78.77
62833;BME280;48891;49.220;6.920;2024-02-21T02:01:26;99868.97;;;15.03;78.72
62833;BME280;48891;49.220;6.920;2024-02-21T02:03:53;99870.03;;;15.00;78.95
62833;BME280;48891;49.220;6.920;2024-02-21T02:06:20;99857.59;;;15.01;78.63
62833;BME280;48891;49.220;6.920;2024-02-21T02:08:45;99854.00;;;15.02;78.40
62833;BME280;48891;49.220;6.920;2024-02-21T02:11:13;99847.72;;;15.03;78.45
62833;BME280;48891;49.220;6.920;2024-02-21T02:13:39;99846.88;;;15.03;78.91
62833;BME280;48891;49.220;6.920;2024-02-21T02:16:04;99844.16;;;15.04;78.54
62833;BME280;48891;49.220;6.920;2024-02-21T02:18:30;99842.72;;;14.98;78.83
62833;BME280;48891;49.220;6.920;2024-02-21T02:20:55;99840.72;;;15.02;78.64
62833;BME280;48891;49.220;6.920;2024-02-21T02:23:23;99825.81;;;14.99;78.69
62833;BME280;48891;49.220;6.920;2024-02-21T02:25:49;99831.13;;;14.99;78.27
62833;BME280;48891;49.220;6.920;2024-02-21T02:28:15;99827.91;;;14.94;78.48
62833;BME280;48891;49.220;6.920;2024-02-21T02:30:40;99834.66;;;15.00;78.69
62833;BME280;48891;49.220;6.920;2024-02-21T02:33:06;99826.69;;;15.00;78.51
62833;BME280;48891;49.220;6.920;2024-02-21T02:35:31;99813.75;;;14.94;78.74
62833;BME280;48891;49.220;6.920;2024-02-21T02:37:57;99817.75;;;15.01;78.32
62833;BME280;48891;49.220;6.920;2024-02-21T02:40:22;99812.75;;;14.96;78.48
62833;BME280;48891;49.220;6.920;2024-02-21T02:42:48;99804.88;;;14.95;78.54
62833;BME280;48891;49.220;6.920;2024-02-21T02:45:18;99803.31;;;14.91;78.52
62833;BME280;48891;49.220;6.920;2024-02-21T02:47:46;99788.34;;;14.90;78.80
62833;BME280;48891;49.220;6.920;2024-02-21T02:50:12;99786.63;;;14.89;78.63
62833;BME280;48891;49.220;6.920;2024-02-21T02:52:37;99784.72;;;14.91;78.64
62833;BME280;48891;49.220;6.920;2024-02-21T02:55:03;99783.97;;;14.89;78.67
62833;BME280;48891;49.220;6.920;2024-02-21T02:57:29;99783.13;;;14.88;79.05
62833;BME280;48891;49.220;6.920;2024-02-21T02:59:54;99776.22;;;14.86;78.85
62833;BME280;48891;49.220;6.920;2024-02-21T03:02:19;99778.75;;;14.87;78.91
62833;BME280;48891;49.220;6.920;2024-02-21T03:04:44;99791.94;;;14.89;79.15
62833;BME280;48891;49.220;6.920;2024-02-21T03:07:10;99779.78;;;14.85;79.05
62833;BME280;48891;49.220;6.920;2024-02-21T03:09:36;99777.91;;;14.87;79.03
62833;BME280;48891;49.220;6.920;2024-02-21T03:12:01;99773.34;;;14.89;79.01
62833;BME280;48891;49.220;6.920;2024-02-21T03:14:26;99776.75;;;14.91;79.01
62833;BME280;48891;49.220;6.920;2024-02-21T03:16:52;99775.81;;;14.92;79.11
62833;BME280;48891;49.220;6.920;2024-02-21T03:19:17;99778.56;;;14.90;78.73
62833;BME280;48891;49.220;6.920;2024-02-21T03:21:42;99781.81;;;14.95;78.98
62833;BME280;48891;49.220;6.920;2024-02-21T03:24:07;99783.63;;;14.95;78.85
62833;BME280;48891;49.220;6.920;2024-02-21T03:26:32;99784.38;;;14.97;78.70
62833;BME280;48891;49.220;6.920;2024-02-21T03:28:58;99783.63;;;14.95;78.55
62833;BME280;48891;49.220;6.920;2024-02-21T03:31:23;99780.13;;;14.94;78.76
62833;BME280;48891;49.220;6.920;2024-02-21T03:33:48;99764.94;;;14.96;78.58
62833;BME280;48891;49.220;6.920;2024-02-21T03:36:14;99765.88;;;14.95;78.44
62833;BME280;48891;49.220;6.920;2024-02-21T03:38:39;99765.78;;;14.97;78.45
62833;BME280;48891;49.220;6.920;2024-02-21T03:41:04;99772.03;;;14.96;78.70
62833;BME280;48891;49.220;6.920;2024-02-21T03:43:30;99773.69;;;14.98;78.34
62833;BME280;48891;49.220;6.920;2024-02-21T03:45:55;99769.38;;;14.96;78.14
62833;BME280;48891;49.220;6.920;2024-02-21T03:48:20;99772.81;;;14.98;78.50
62833;BME280;48891;49.220;6.920;2024-02-21T03:50:45;99765.72;;;14.98;78.39
62833;BME280;48891;49.220;6.920;2024-02-21T03:53:11;99749.88;;;14.97;78.56
62833;BME280;48891;49.220;6.920;2024-02-21T03:55:36;99741.91;;;14.97;78.38
62833;BME280;48891;49.220;6.920;2024-02-21T03:58:01;99738.41;;;14.96;78.41
62833;BME280;48891;49.220;6.920;2024-02-21T04:00:26;99732.50;;;14.91;78.40
62833;BME280;48891;49.220;6.920;2024-02-21T04:02:51;99739.16;;;14.98;78.35
62833;BME280;48891;49.220;6.920;2024-02-21T04:05:17;99727.78;;;14.96;78.02
62833;BME280;48891;49.220;6.920;2024-02-21T04:07:42;99743.63;;;14.98;77.73
62833;BME280;48891;49.220;6.920;2024-02-21T04:10:08;99728.72;;;14.95;78.30
62833;BME280;48891;49.220;6.920;2024-02-21T04:12:33;99735.53;;;14.99;77.99
62833;BME280;48891;49.220;6.920;2024-02-21T04:14:58;99724.16;;;14.97;77.96
62833;BME280;48891;49.220;6.920;2024-02-21T04:17:24;99720.56;;;14.98;77.89
62833;BME280;48891;49.220;6.920;2024-02-21T04:19:49;99710.78;;;14.99;78.17
62833;BME280;48891;49.220;6.920;2024-02-21T04:22:14;99703.00;;;14.96;78.28
62833;BME280;48891;49.220;6.920;2024-02-21T04:24:39;99704.72;;;14.97;77.91
62833;BME280;48891;49.220;6.920;2024-02-21T04:27:05;99696.75;;;14.97;78.04
62833;BME280;48891;49.220;6.920;2024-02-21T04:29:30;99693.34;;;14.95;78.06
62833;BME280;48891;49.220;6.920;2024-02-21T04:31:55;99689.72;;;14.96;78.06
62833;BME280;48891;49.220;6.920;2024-02-21T04:34:20;99694.19;;;14.95;78.16
62833;BME280;48891;49.220;6.920;2024-02-21T04:36:46;99681.97;;;14.93;77.87
62833;BME280;48891;49.220;6.920;2024-02-21T04:39:11;99688.03;;;14.95;77.97
62833;BME280;48891;49.220;6.920;2024-02-21T04:41:36;99674.94;;;14.92;77.92
62833;BME280;48891;49.220;6.920;2024-02-21T04:44:02;99667.16;;;14.89;77.92
62833;BME280;48891;49.220;6.920;2024-02-21T04:46:27;99662.44;;;14.94;77.96
62833;BME280;48891;49.220;6.920;2024-02-21T04:48:52;99656.44;;;14.90;78.33
62833;BME280;48891;49.220;6.920;2024-02-21T04:51:17;99657.13;;;14.94;78.08
62833;BME280;48891;49.220;6.920;2024-02-21T04:53:43;99668.69;;;14.93;77.93
62833;BME280;48891;49.220;6.920;2024-02-21T04:56:08;99660.75;;;14.93;78.20
62833;BME280;48891;49.220;6.920;2024-02-21T04:58:37;99666.13;;;14.91;78.15
62833;BME280;48891;49.220;6.920;2024-02-21T05:01:03;99662.91;;;14.86;78.03
62833;BME280;48891;49.220;6.920;2024-02-21T05:03:28;99663.16;;;14.81;78.64
62833;BME280;48891;49.220;6.920;2024-02-21T05:05:53;99667.47;;;14.84;78.41
62833;BME280;48891;49.220;6.920;2024-02-21T05:08:19;99650.38;;;14.74;78.30
62833;BME280;48891;49.220;6.920;2024-02-21T05:10:44;99666.50;;;14.85;78.40
62833;BME280;48891;49.220;6.920;2024-02-21T05:13:09;99668.31;;;14.85;78.56
62833;BME280;48891;49.220;6.920;2024-02-21T05:15:34;99674.53;;;14.84;78.56
62833;BME280;48891;49.220;6.920;2024-02-21T05:17:59;99670.19;;;14.83;78.56
62833;BME280;48891;49.220;6.920;2024-02-21T05:20:25;99649.78;;;14.69;78.54
62833;BME280;48891;49.220;6.920;2024-02-21T05:22:50;99653.19;;;14.71;78.59
62833;BME280;48891;49.220;6.920;2024-02-21T05:25:15;99674.00;;;14.78;78.95
62833;BME280;48891;49.220;6.920;2024-02-21T05:27:40;99674.00;;;14.78;78.94
62833;BME280;48891;49.220;6.920;2024-02-21T05:30:06;99670.63;;;14.75;79.10
62833;BME280;48891;49.220;6.920;2024-02-21T05:32:31;99666.13;;;14.77;79.20
62833;BME280;48891;49.220;6.920;2024-02-21T05:34:57;99662.59;;;14.76;78.58
62833;BME280;48891;49.220;6.920;2024-02-21T05:37:22;99654.72;;;14.75;78.85
62833;BME280;48891;49.220;6.920;2024-02-21T05:39:47;99656.53;;;14.74;78.71
62833;BME280;48891;49.220;6.920;2024-02-21T05:42:13;99653.88;;;14.74;79.15
62833;BME280;48891;49.220;6.920;2024-02-21T05:44:38;99648.75;;;14.71;78.97
62833;BME280;48891;49.220;6.920;2024-02-21T05:47:03;99651.31;;;14.73;79.22
62833;BME280;48891;49.220;6.920;2024-02-21T05:49:28;99655.84;;;14.71;79.15
62833;BME280;48891;49.220;6.920;2024-02-21T05:51:54;99643.44;;;14.71;78.65
62833;BME280;48891;49.220;6.920;2024-02-21T05:54:19;99635.47;;;14.71;78.88
62833;BME280;48891;49.220;6.920;2024-02-21T05:56:45;99639.94;;;14.71;78.78
62833;BME280;48891;49.220;6.920;2024-02-21T05:59:10;99639.00;;;14.72;79.27
62833;BME280;48891;49.220;6.920;2024-02-21T06:01:36;99634.81;;;14.68;79.20
62833;BME280;48891;49.220;6.920;2024-02-21T06:04:01;99618.75;;;14.55;78.94
62833;BME280;48891;49.220;6.920;2024-02-21T06:06:26;99636.53;;;14.69;79.24
62833;BME280;48891;49.220;6.920;2024-02-21T06:08:51;99624.97;;;14.70;79.21
62833;BME280;48891;49.220;6.920;2024-02-21T06:11:17;99621.44;;;14.69;78.89
62833;BME280;48891;49.220;6.920;2024-02-21T06:13:42;99613.56;;;14.68;79.26
62833;BME280;48891;49.220;6.920;2024-02-21T06:16:07;99602.88;;;14.69;78.89
62833;BME280;48891;49.220;6.920;2024-02-21T06:18:33;99597.66;;;14.68;79.46
62833;BME280;48891;49.220;6.920;2024-02-21T06:20:58;99602.97;;;14.68;79.29
62833;BME280;48891;49.220;6.920;2024-02-21T06:23:24;99600.31;;;14.68;79.46
62833;BME280;48891;49.220;6.920;2024-02-21T06:25:49;99595.13;;;14.66;79.18
62833;BME280;48891;49.220;6.920;2024-02-21T06:28:14;99585.69;;;14.60;78.97
62833;BME280;48891;49.220;6.920;2024-02-21T06:30:40;99600.50;;;14.65;79.25
62833;BME280;48891;49.220;6.920;2024-02-21T06:33:05;99583.72;;;14.64;79.21
62833;BME280;48891;49.220;6.920;2024-02-21T06:35:30;99597.66;;;14.68;79.46
62833;BME280;48891;49.220;6.920;2024-02-21T06:37:55;99593.31;;;14.67;79.33
62833;BME280;48891;49.220;6.920;2024-02-21T06:40:22;99604.75;;;14.67;79.28
62833;BME280;48891;49.220;6.920;2024-02-21T06:42:48;99597.78;;;14.66;79.63
62833;BME280;48891;49.220;6.920;2024-02-21T06:45:14;99598.63;;;14.67;79.28
62833;BME280;48891;49.220;6.920;2024-02-21T06:47:40;99570.13;;;14.54;79.55
62833;BME280;48891;49.220;6.920;2024-02-21T06:50:05;99592.66;;;14.63;79.53
62833;BME280;48891;49.220;6.920;2024-02-21T06:52:31;99587.25;;;14.65;79.20
62833;BME280;48891;49.220;6.920;2024-02-21T06:54:56;99591.50;;;14.67;79.46
62833;BME280;48891;49.220;6.920;2024-02-21T06:57:21;99592.47;;;14.66;79.28
62833;BME280;48891;49.220;6.920;2024-02-21T06:59:47;99606.56;;;14.67;79.15
62833;BME280;48891;49.220;6.920;2024-02-21T07:02:12;99593.41;;;14.65;79.46
62833;BME280;48891;49.220;6.920;2024-02-21T07:04:37;99594.25;;;14.66;79.25
62833;BME280;48891;49.220;6.920;2024-02-21T07:07:02;99589.81;;;14.66;79.51
62833;BME280;48891;49.220;6.920;2024-02-21T07:09:28;99595.13;;;14.66;79.43
62833;BME280;48891;49.220;6.920;2024-02-21T07:11:53;99589.69;;;14.68;79.50
62833;BME280;48891;49.220;6.920;2024-02-21T07:14:18;99592.34;;;14.68;79.28
62833;BME280;48891;49.220;6.920;2024-02-21T07:16:44;99591.41;;;14.69;79.19
62833;BME280;48891;49.220;6.920;2024-02-21T07:19:09;99589.81;;;14.66;79.27
62833;BME280;48891;49.220;6.920;2024-02-21T07:21:35;99572.34;;;14.62;79.14
62833;BME280;48891;49.220;6.920;2024-02-21T07:24:00;99581.53;;;14.71;79.42
62833;BME280;48891;49.220;6.920;2024-02-21T07:26:25;99563.88;;;14.55;78.99
62833;BME280;48891;49.220;6.920;2024-02-21T07:28:50;99592.81;;;14.74;79.04
62833;BME280;48891;49.220;6.920;2024-02-21T07:31:15;99581.38;;;14.74;79.32
62833;BME280;48891;49.220;6.920;2024-02-21T07:33:41;99581.28;;;14.75;79.28
62833;BME280;48891;49.220;6.920;2024-02-21T07:36:07;99583.94;;;14.75;78.99
62833;BME280;48891;49.220;6.920;2024-02-21T07:38:32;99577.56;;;14.78;78.74
62833;BME280;48891;49.220;6.920;2024-02-21T07:40:58;99575.00;;;14.76;79.21
62833;BME280;48891;49.220;6.920;2024-02-21T07:43:23;99557.75;;;14.69;79.22
62833;BME280;48891;49.220;6.920;2024-02-21T07:45:48;99573.13;;;14.78;78.86
62833;BME280;48891;49.220;6.920;2024-02-21T07:48:13;99557.97;;;14.80;79.07
62833;BME280;48891;49.220;6.920;2024-02-21T07:50:38;99556.91;;;14.83;78.98
62833;BME280;48891;49.220;6.920;2024-02-21T07:53:04;99558.63;;;14.84;78.79
62833;BME280;48891;49.220;6.920;2024-02-21T07:55:29;99543.16;;;14.76;78.91
62833;BME280;48891;49.220;6.920;2024-02-21T07:57:54;99562.97;;;14.85;78.61
62833;BME280;48891;49.220;6.920;2024-02-21T08:00:20;99558.72;;;14.83;78.43
62833;BME280;48891;49.220;6.920;2024-02-21T08:02:48;99563.63;;;14.89;78.83
62833;BME280;48891;49.220;6.920;2024-02-21T08:05:14;99564.38;;;14.91;78.79
62833;BME280;48891;49.220;6.920;2024-02-21T08:07:39;99560.03;;;14.90;78.26
62833;BME280;48891;49.220;6.920;2024-02-21T08:10:05;99560.03;;;14.90;78.45
62833;BME280;48891;49.220;6.920;2024-02-21T08:12:30;99555.47;;;14.92;78.17
62833;BME280;48891;49.220;6.920;2024-02-21T08:14:55;99563.44;;;14.92;78.71
62833;BME280;48891;49.220;6.920;2024-02-21T08:17:21;99562.59;;;14.91;78.33
62833;BME280;48891;49.220;6.920;2024-02-21T08:19:46;99560.78;;;14.92;78.51
62833;BME280;48891;49.220;6.920;2024-02-21T08:22:11;99571.31;;;14.93;78.37
62833;BME280;48891;49.220;6.920;2024-02-21T08:24:36;99566.84;;;14.94;78.34
62833;BME280;48891;49.220;6.920;2024-02-21T08:27:02;99571.22;;;14.95;78.54
62833;BME280;48891;49.220;6.920;2024-02-21T08:29:27;99545.81;;;14.91;78.29
62833;BME280;48891;49.220;6.920;2024-02-21T08:31:53;99556.81;;;14.99;77.99
62833;BME280;48891;49.220;6.920;2024-02-21T08:34:18;99553.97;;;15.02;77.84
62833;BME280;48891;49.220;6.920;2024-02-21T08:36:44;99552.91;;;15.05;77.79
62833;BME280;48891;49.220;6.920;2024-02-21T08:39:09;99551.88;;;15.07;78.02
62833;BME280;48891;49.220;6.920;2024-02-21T08:41:34;99549.97;;;15.09;77.94
62833;BME280;48891;49.220;6.920;2024-02-21T08:44:00;99546.47;;;15.09;77.63
62833;BME280;48891;49.220;6.920;2024-02-21T08:46:25;99544.66;;;15.09;77.66
62833;BME280;48891;49.220;6.920;2024-02-21T08:48:51;99543.72;;;15.10;77.68
62833;BME280;48891;49.220;6.920;2024-02-21T08:51:17;99534.78;;;15.11;77.60
62833;BME280;48891;49.220;6.920;2024-02-21T08:53:43;99524.25;;;15.10;77.67
62833;BME280;48891;49.220;6.920;2024-02-21T08:56:09;99526.81;;;15.11;77.53
62833;BME280;48891;49.220;6.920;2024-02-21T08:58:36;99530.13;;;15.15;77.58
62833;BME280;48891;49.220;6.920;2024-02-21T09:01:01;99513.25;;;15.16;77.24
62833;BME280;48891;49.220;6.920;2024-02-21T09:03:26;99507.06;;;15.15;77.55
62833;BME280;48891;49.220;6.920;2024-02-21T09:05:52;99505.38;;;15.14;77.38
62833;BME280;48891;49.220;6.920;2024-02-21T09:08:17;99492.75;;;15.18;77.42
62833;BME280;48891;49.220;6.920;2024-02-21T09:10:42;99491.28;;;15.14;77.51
62833;BME280;48891;49.220;6.920;2024-02-21T09:13:07;99492.19;;;15.13;77.17
62833;BME280;48891;49.220;6.920;2024-02-21T09:15:32;99483.50;;;15.11;77.41
62833;BME280;48891;49.220;6.920;2024-02-21T09:17:58;99483.16;;;15.15;77.55
62833;BME280;48891;49.220;6.920;2024-02-21T09:20:23;99466.59;;;15.12;77.22
62833;BME280;48891;49.220;6.920;2024-02-21T09:22:48;99477.38;;;15.23;77.12
62833;BME280;48891;49.220;6.920;2024-02-21T09:25:14;99478.22;;;15.24;77.39
62833;BME280;48891;49.220;6.920;2024-02-21T09:27:39;99475.56;;;15.24;76.89
62833;BME280;48891;49.220;6.920;2024-02-21T09:30:05;99473.56;;;15.27;76.57
62833;BME280;48891;49.220;6.920;2024-02-21T09:32:31;99467.41;;;15.27;77.18
62833;BME280;48891;49.220;6.920;2024-02-21T09:34:57;99464.75;;;15.27;76.51
62833;BME280;48891;49.220;6.920;2024-02-21T09:37:23;99465.50;;;15.29;76.64
62833;BME280;48891;49.220;6.920;2024-02-21T09:39:48;99455.53;;;15.32;76.52
62833;BME280;48891;49.220;6.920;2024-02-21T09:42:14;99447.56;;;15.32;76.57
62833;BME280;48891;49.220;6.920;2024-02-21T09:44:41;99413.84;;;15.20;76.70
62833;BME280;48891;49.220;6.920;2024-02-21T09:47:10;99423.94;;;15.28;76.10
62833;BME280;48891;49.220;6.920;2024-02-21T09:49:39;99421.63;;;15.36;76.48
62833;BME280;48891;49.220;6.920;2024-02-21T09:52:06;99423.13;;;15.40;76.16
62833;BME280;48891;49.220;6.920;2024-02-21T09:54:33;99418.03;;;15.37;76.03
62833;BME280;48891;49.220;6.920;2024-02-21T09:57:00;99422.94;;;15.43;75.86
62833;BME280;48891;49.220;6.920;2024-02-21T09:59:27;99428.88;;;15.47;76.11
62833;BME280;48891;49.220;6.920;2024-02-21T10:01:52;99425.50;;;15.45;76.23
62833;BME280;48891;49.220;6.920;2024-02-21T10:04:20;99421.91;;;15.46;75.77
62833;BME280;48891;49.220;6.920;2024-02-21T10:06:45;99417.41;;;15.46;76.18
62833;BME280;48891;49.220;6.920;2024-02-21T10:09:40;99416.59;;;15.46;76.24
62833;BME280;48891;49.220;6.920;2024-02-21T10:12:08;99421.13;;;15.44;76.08
62833;BME280;48891;49.220;6.920;2024-02-21T10:14:34;99418.38;;;15.45;76.29
62833;BME280;48891;49.220;6.920;2024-02-21T10:16:59;99406.06;;;15.44;76.35
62833;BME280;48891;49.220;6.920;2024-02-21T10:19:24;99404.25;;;15.45;76.20
62833;BME280;48891;49.220;6.920;2024-02-21T10:24:28;99393.91;;;15.40;76.67
62833;BME280;48891;49.220;6.920;2024-02-21T10:27:03;99388.41;;;15.43;76.52
62833;BME280;48891;49.220;6.920;2024-02-21T10:29:30;99383.19;;;15.42;76.04
62833;BME280;48891;49.220;6.920;2024-02-21T10:32:05;99382.63;;;15.36;76.87
62833;BME280;48891;49.220;6.920;2024-02-21T10:34:30;99379.69;;;15.41;76.50
62833;BME280;48891;49.220;6.920;2024-02-21T10:37:03;99383.94;;;15.44;76.53
62833;BME280;48891;49.220;6.920;2024-02-21T10:39:29;99376.06;;;15.42;76.06
62833;BME280;48891;49.220;6.920;2024-02-21T10:41:57;99381.16;;;15.45;76.20
62833;BME280;48891;49.220;6.920;2024-02-21T10:44:26;99383.94;;;15.44;76.44
62833;BME280;48891;49.220;6.920;2024-02-21T10:46:53;99389.47;;;15.41;76.32
62833;BME280;48891;49.220;6.920;2024-02-21T10:49:23;99384.03;;;15.42;76.07
62833;BME280;48891;49.220;6.920;2024-02-21T10:51:49;99383.38;;;15.38;76.14
62833;BME280;48891;49.220;6.920;2024-02-21T10:57:08;99368.50;;;15.36;76.49
62833;BME280;48891;49.220;6.920;2024-02-21T10:59:37;99375.53;;;15.37;76.43
62833;BME280;48891;49.220;6.920;2024-02-21T11:02:02;99377.22;;;15.38;76.45
62833;BME280;48891;49.220;6.920;2024-02-21T11:04:28;99379.88;;;15.38;76.28
62833;BME280;48891;49.220;6.920;2024-02-21T11:06:54;99362.13;;;15.38;76.17
62833;BME280;48891;49.220;6.920;2024-02-21T11:09:29;99373.53;;;15.41;76.14
62833;BME280;48891;49.220;6.920;2024-02-21T11:11:56;99365.75;;;15.37;75.98
62833;BME280;48891;49.220;6.920;2024-02-21T11:14:21;99353.31;;;15.38;76.23
62833;BME280;48891;49.220;6.920;2024-02-21T11:16:47;99351.41;;;15.40;76.33
62833;BME280;48891;49.220;6.920;2024-02-21T11:19:23;99357.34;;;15.44;76.32
62833;BME280;48891;49.220;6.920;2024-02-21T11:21:50;99351.19;;;15.43;75.92
62833;BME280;48891;49.220;6.920;2024-02-21T11:24:26;99344.94;;;15.44;75.88
62833;BME280;48891;49.220;6.920;2024-02-21T11:26:52;99331.03;;;15.41;75.86
62833;BME280;48891;49.220;6.920;2024-02-21T11:29:23;99331.66;;;15.44;75.80
62833;BME280;48891;49.220;6.920;2024-02-21T11:31:49;99319.31;;;15.43;75.52
62833;BME280;48891;49.220;6.920;2024-02-21T11:34:17;99313.06;;;15.44;75.55
62833;BME280;48891;49.220;6.920;2024-02-21T11:36:50;99302.34;;;15.46;75.74
62833;BME280;48891;49.220;6.920;2024-02-21T11:39:23;99288.38;;;15.42;75.71
62833;BME280;48891;49.220;6.920;2024-02-21T11:42:04;99290.09;;;15.43;76.05
62833;BME280;48891;49.220;6.920;2024-02-21T11:44:31;99266.00;;;15.33;76.02
62833;BME280;48891;49.220;6.920;2024-02-21T11:46:57;99273.41;;;15.41;76.16
62833;BME280;48891;49.220;6.920;2024-02-21T11:49:25;99272.34;;;15.44;75.77
62833;BME280;48891;49.220;6.920;2024-02-21T11:52:00;99265.25;;;15.44;75.95
62833;BME280;48891;49.220;6.920;2024-02-21T11:54:25;99232.59;;;15.29;75.56
62833;BME280;48891;49.220;6.920;2024-02-21T11:56:51;99229.63;;;15.34;75.84
62833;BME280;48891;49.220;6.920;2024-02-21T11:59:16;99235.38;;;15.41;75.59
62833;BME280;48891;49.220;6.920;2024-02-21T12:01:41;99228.34;;;15.40;75.74
62833;BME280;48891;49.220;6.920;2024-02-21T12:04:07;99228.34;;;15.40;75.86
62833;BME280;48891;49.220;6.920;2024-02-21T12:06:33;99218.56;;;15.40;75.76
62833;BME280;48891;49.220;6.920;2024-02-21T12:08:58;99214.34;;;15.37;75.72
62833;BME280;48891;49.220;6.920;2024-02-21T12:11:23;99198.28;;;15.39;75.85
62833;BME280;48891;49.220;6.920;2024-02-21T12:14:02;99192.09;;;15.38;75.93
62833;BME280;48891;49.220;6.920;2024-02-21T12:16:28;99185.13;;;15.37;76.23
62833;BME280;48891;49.220;6.920;2024-02-21T12:18:53;99143.25;;;15.15;76.14
62833;BME280;48891;49.220;6.920;2024-02-21T12:21:19;99176.31;;;15.37;76.61
62833;BME280;48891;49.220;6.920;2024-02-21T12:23:44;99167.47;;;15.36;76.75
62833;BME280;48891;49.220;6.920;2024-02-21T12:26:09;99156.94;;;15.35;76.97
62833;BME280;48891;49.220;6.920;2024-02-21T12:28:34;99148.47;;;15.30;77.56
62833;BME280;48891;49.220;6.920;2024-02-21T12:31:00;99144.19;;;15.40;77.78
62833;BME280;48891;49.220;6.920;2024-02-21T12:33:25;99145.06;;;15.41;77.78
62833;BME280;48891;49.220;6.920;2024-02-21T12:35:50;99136.84;;;15.44;78.17
62833;BME280;48891;49.220;6.920;2024-02-21T12:38:15;99124.44;;;15.44;78.34
62833;BME280;48891;49.220;6.920;2024-02-21T12:40:41;99119.84;;;15.46;78.52
62833;BME280;48891;49.220;6.920;2024-02-21T12:43:06;99099.66;;;15.44;78.69
62833;BME280;48891;49.220;6.920;2024-02-21T12:45:31;99085.22;;;15.35;78.81
62833;BME280;48891;49.220;6.920;2024-02-21T12:47:56;99091.88;;;15.53;77.98
62833;BME280;48891;49.220;6.920;2024-02-21T12:50:22;99096.47;;;15.51;78.21
62833;BME280;48891;49.220;6.920;2024-02-21T12:52:47;99092.94;;;15.51;78.34
62833;BME280;48891;49.220;6.920;2024-02-21T12:55:12;99086.56;;;15.53;78.28
62833;BME280;48891;49.220;6.920;2024-02-21T12:57:37;99092.63;;;15.55;78.69